Time;durP1;ratioP1;P1;durP2;ratioP2;P2;SDS_P1;SDS_P2;PMS_P1;PMS_P2;Temp;Humidity;BMP_temperature;BMP_pressure;BME280_temperature;BME280_humidity;BME280_pressure;Samples;Min_cycle;Max_cycle;Signal;HPM_P1;HPM_P2
2021/12/22 00:00:27;;;;;;;30.90;11.35;;;;;;;-147.53;100.00;57128.34;15286593;19;20011;-56
2021/12/22 00:05:43;;;;;;;33.72;11.15;;;;;;;-147.53;100.00;57128.34;15300751;19;20011;-56
2021/12/22 00:10:46;;;;;;;33.27;12.23;;;;;;;-147.53;100.00;57128.34;15302568;19;20018;-57
2021/12/22 00:15:48;;;;;;;30.60;9.93;;;;;;;-147.53;100.00;57128.34;15300977;19;20070;-55
2021/12/22 00:20:50;;;;;;;33.10;12.90;;;;;;;-147.53;100.00;57128.34;15300178;19;20110;-56
2021/12/22 00:25:52;;;;;;;33.03;11.07;;;;;;;-147.53;100.00;57128.34;15298034;19;20017;-56
2021/12/22 00:30:53;;;;;;;30.70;11.32;;;;;;;-147.53;100.00;57128.34;15295926;19;20018;-56
2021/12/22 00:35:55;;;;;;;36.47;11.70;;;;;;;-147.53;100.00;57128.34;15297754;19;20046;-57
2021/12/22 00:40:56;;;;;;;40.25;11.40;;;;;;;-147.53;100.00;57128.34;15299283;19;20637;-57
2021/12/22 00:45:58;;;;;;;49.30;14.63;;;;;;;-147.53;100.00;57128.34;15300461;19;20363;-56
2021/12/22 00:51:00;;;;;;;33.45;12.15;;;;;;;-147.53;100.00;57128.34;15298726;19;20044;-56
2021/12/22 00:56:03;;;;;;;44.22;13.95;;;;;;;-147.53;100.00;57128.34;15301394;19;20017;-55
2021/12/22 01:01:11;;;;;;;40.95;11.98;;;;;;;-147.53;100.00;57128.34;15297525;19;20022;-55
2021/12/22 01:06:21;;;;;;;26.25;10.35;;;;;;;-147.53;100.00;57128.34;15299316;19;20014;-57
2021/12/22 01:11:23;;;;;;;35.03;11.50;;;;;;;-147.53;100.00;57128.34;15297808;19;20021;-57
2021/12/22 01:16:25;;;;;;;30.55;11.05;;;;;;;-147.53;100.00;57128.34;15298602;19;20018;-57
2021/12/22 01:21:40;;;;;;;34.75;12.02;;;;;;;-147.53;100.00;57128.34;15297182;19;20089;-56
2021/12/22 01:26:47;;;;;;;34.50;11.90;;;;;;;-147.53;100.00;57128.34;15297274;19;20841;-57
2021/12/22 01:31:48;;;;;;;33.72;10.98;;;;;;;-147.53;100.00;57128.34;15293899;19;20017;-57
2021/12/22 01:36:50;;;;;;;35.78;12.85;;;;;;;-147.53;100.00;57128.34;15297318;19;20036;-55
2021/12/22 01:41:52;;;;;;;32.63;12.23;;;;;;;-147.53;100.00;57128.34;15296419;19;20022;-57
2021/12/22 01:52:14;;;;;;;;;;;;;;;-147.53;100.00;57128.34;15295760;19;20018;-57
2021/12/22 01:57:17;;;;;;;35.88;12.50;;;;;;;-147.53;100.00;57128.34;15297001;19;19918;-56
2021/12/22 02:02:26;;;;;;;30.25;11.60;;;;;;;-147.53;100.00;57128.34;15293738;19;20018;-55
2021/12/22 02:07:31;;;;;;;38.22;12.80;;;;;;;-147.53;100.00;57128.34;15293092;19;20013;-58
2021/12/22 02:12:38;;;;;;;42.78;12.95;;;;;;;-147.53;100.00;57128.34;15290346;19;20007;-57
2021/12/22 02:17:41;;;;;;;46.25;12.05;;;;;;;-147.53;100.00;57128.34;15294868;19;20105;-57
2021/12/22 02:22:44;;;;;;;37.22;11.07;;;;;;;-147.53;100.00;57128.34;15292549;19;20093;-57
2021/12/22 02:27:53;;;;;;;44.08;12.40;;;;;;;-147.53;100.00;57128.34;15293385;19;20743;-57
2021/12/22 02:37:58;;;;;;;34.80;13.20;;;;;;;-147.53;100.00;57128.34;15293268;19;20015;-56
2021/12/22 02:43:05;;;;;;;37.83;13.23;;;;;;;-147.53;100.00;57128.34;15291449;19;20025;-58
2021/12/22 02:48:07;;;;;;;38.80;12.68;;;;;;;-147.53;100.00;57128.34;15293819;19;20085;-56
2021/12/22 02:53:12;;;;;;;40.53;14.45;;;;;;;-147.53;100.00;57128.34;15289655;19;20014;-57
2021/12/22 02:58:33;;;;;;;34.17;12.55;;;;;;;-147.53;100.00;57128.34;15290568;19;20058;-58
2021/12/22 03:03:59;;;;;;;34.33;12.30;;;;;;;-147.53;100.00;57128.34;15288929;19;20025;-58
2021/12/22 03:08:58;;;;;;;38.20;15.48;;;;;;;-147.53;100.00;57128.34;15290460;19;20039;-57
2021/12/22 03:14:00;;;;;;;31.88;12.20;;;;;;;-147.53;100.00;57128.34;15285369;19;20363;-55
2021/12/22 03:19:03;;;;;;;33.90;11.52;;;;;;;-147.53;100.00;57128.34;15288497;19;20471;-56
2021/12/22 03:24:05;;;;;;;27.83;12.80;;;;;;;-147.53;100.00;57128.34;15289321;19;20024;-58
2021/12/22 03:29:14;;;;;;;27.70;10.85;;;;;;;-147.53;100.00;57128.34;15290775;19;20014;-57
2021/12/22 03:34:16;;;;;;;25.77;10.63;;;;;;;-147.53;100.00;57128.34;15286833;19;20007;-55
2021/12/22 03:39:17;;;;;;;25.40;10.07;;;;;;;-147.53;100.00;57128.34;15289622;19;20018;-57
2021/12/22 03:44:19;;;;;;;20.40;8.85;;;;;;;-147.53;100.00;57128.34;15288409;19;20087;-57
2021/12/22 03:49:21;;;;;;;19.30;9.70;;;;;;;-147.53;100.00;57128.34;15288113;19;20085;-57
2021/12/22 03:54:23;;;;;;;23.70;9.98;;;;;;;-147.53;100.00;57128.34;15284108;19;20011;-57
2021/12/22 03:59:25;;;;;;;21.88;9.45;;;;;;;-147.53;100.00;57128.34;15286770;19;20022;-56
2021/12/22 04:04:26;;;;;;;25.75;10.43;;;;;;;-147.53;100.00;57128.34;15284439;19;20006;-58
2021/12/22 04:09:29;;;;;;;23.52;9.68;;;;;;;-147.53;100.00;57128.34;15286477;19;20014;-58
2021/12/22 04:14:31;;;;;;;24.52;10.07;;;;;;;-147.53;100.00;57128.34;15282724;19;20017;-57
2021/12/22 04:19:32;;;;;;;24.50;9.77;;;;;;;-147.53;100.00;57128.34;15287261;19;20082;-57
2021/12/22 04:24:34;;;;;;;18.42;8.82;;;;;;;-147.53;100.00;57128.34;15287683;19;20078;-57
2021/12/22 04:29:36;;;;;;;23.20;9.15;;;;;;;-147.53;100.00;57128.34;15288270;19;20086;-56
2021/12/22 04:34:38;;;;;;;24.73;10.75;;;;;;;-147.53;100.00;57128.34;15285202;19;20086;-57
2021/12/22 04:39:39;;;;;;;20.42;9.30;;;;;;;-147.53;100.00;57128.34;15285963;19;20018;-57
2021/12/22 04:44:41;;;;;;;27.77;9.40;;;;;;;-147.53;100.00;57128.34;15282458;19;20010;-57
2021/12/22 04:49:44;;;;;;;32.50;12.15;;;;;;;-147.53;100.00;57128.34;15290283;19;20011;-56
2021/12/22 04:55:02;;;;;;;33.03;10.98;;;;;;;-147.53;100.00;57128.34;15295377;19;20028;-57
2021/12/22 05:00:10;;;;;;;34.38;10.73;;;;;;;-147.53;100.00;57128.34;15298547;19;20087;-55
2021/12/22 05:05:13;;;;;;;43.10;13.33;;;;;;;-147.53;100.00;57128.34;15299563;19;20361;-55
2021/12/22 05:10:17;;;;;;;37.15;12.77;;;;;;;-147.53;100.00;57128.34;15296943;19;20014;-56
2021/12/22 05:15:22;;;;;;;48.92;14.20;;;;;;;-147.53;100.00;57128.34;15294747;19;20014;-57
2021/12/22 05:20:24;;;;;;;46.05;14.60;;;;;;;-147.53;100.00;57128.34;15297809;19;20019;-57
2021/12/22 05:25:26;;;;;;;46.65;14.25;;;;;;;-147.53;100.00;57128.34;15298625;19;20030;-58
2021/12/22 05:30:28;;;;;;;37.88;14.27;;;;;;;-147.53;100.00;57128.34;15297540;19;20014;-56
2021/12/22 05:35:29;;;;;;;43.38;11.85;;;;;;;-147.53;100.00;57128.34;15293219;19;20003;-58
2021/12/22 05:40:31;;;;;;;42.22;13.98;;;;;;;-147.53;100.00;57128.34;15295761;19;20043;-57
2021/12/22 05:45:33;;;;;;;30.23;11.57;;;;;;;-147.53;100.00;57128.34;15296370;19;20011;-57
2021/12/22 05:50:35;;;;;;;35.42;10.52;;;;;;;-147.53;100.00;57128.34;15294073;19;20014;-57
2021/12/22 05:55:36;;;;;;;34.63;13.10;;;;;;;-147.53;100.00;57128.34;15294654;19;20036;-57
2021/12/22 06:00:49;;;;;;;40.95;13.40;;;;;;;-147.53;100.00;57128.34;15291502;19;20010;-54
2021/12/22 06:05:56;;;;;;;42.10;14.18;;;;;;;-147.53;100.00;57128.34;15294992;19;20106;-58
2021/12/22 06:10:58;;;;;;;35.72;12.82;;;;;;;-147.53;100.00;57128.34;15295535;19;20021;-58
2021/12/22 06:15:59;;;;;;;37.45;12.48;;;;;;;-147.53;100.00;57128.34;15295901;19;20018;-58
2021/12/22 06:21:01;;;;;;;34.00;13.15;;;;;;;-147.53;100.00;57128.34;15293554;19;20022;-57
2021/12/22 06:26:03;;;;;;;40.15;13.30;;;;;;;-147.53;100.00;57128.34;15291474;19;20619;-58
2021/12/22 06:31:05;;;;;;;49.30;16.75;;;;;;;-147.53;100.00;57128.34;15291923;19;20082;-57
2021/12/22 06:36:06;;;;;;;55.33;15.80;;;;;;;-147.53;100.00;57128.34;15290272;19;20014;-58
2021/12/22 06:41:08;;;;;;;38.20;14.60;;;;;;;-147.53;100.00;57128.34;15290920;19;20021;-58
2021/12/22 06:46:10;;;;;;;39.50;15.15;;;;;;;-147.53;100.00;57128.34;15292051;19;20013;-57
2021/12/22 06:51:12;;;;;;;41.80;14.90;;;;;;;-147.53;100.00;57128.34;15291019;19;20026;-57
2021/12/22 06:56:13;;;;;;;34.60;14.30;;;;;;;-147.53;100.00;57128.34;15292155;19;20022;-58
2021/12/22 07:01:24;;;;;;;41.70;14.80;;;;;;;-147.53;100.00;57128.34;15291541;19;20014;-57
2021/12/22 07:06:36;;;;;;;42.13;12.38;;;;;;;-147.53;100.00;57128.34;15265447;19;20085;-56
2021/12/22 07:11:57;;;;;;;34.95;12.65;;;;;;;-147.53;100.00;57128.34;15263895;19;20015;-55
2021/12/22 07:17:04;;;;;;;33.55;12.05;;;;;;;-147.53;100.00;57128.34;15264313;19;20014;-56
2021/12/22 07:22:16;;;;;;;32.13;12.68;;;;;;;-147.53;100.00;57128.34;15263173;19;20015;-55
2021/12/22 07:27:19;;;;;;;33.15;12.43;;;;;;;-147.53;100.00;57128.34;15287579;19;20467;-58
2021/12/22 07:32:21;;;;;;;40.47;13.63;;;;;;;-147.53;100.00;57128.34;15285367;19;20090;-57
2021/12/22 07:37:38;;;;;;;29.45;11.60;;;;;;;-147.53;100.00;57128.34;15288344;19;20014;-58
2021/12/22 07:42:40;;;;;;;26.63;10.32;;;;;;;-147.53;100.00;57128.34;15289678;19;20048;-58
2021/12/22 07:47:42;;;;;;;27.65;10.88;;;;;;;-147.53;100.00;57128.34;15288063;19;20022;-58
2021/12/22 07:52:43;;;;;;;32.33;12.13;;;;;;;-147.53;100.00;57128.34;15284149;19;20022;-58
2021/12/22 07:57:46;;;;;;;29.52;13.07;;;;;;;-147.53;100.00;57128.34;15286805;19;20453;-57
2021/12/22 08:02:59;;;;;;;32.25;11.95;;;;;;;-147.53;100.00;57128.34;15278403;19;20462;-56
2021/12/22 08:08:41;;;;;;;30.50;11.05;;;;;;;-147.53;100.00;57128.34;15253822;19;20074;-55
2021/12/22 08:13:56;;;;;;;34.65;12.13;;;;;;;-147.53;100.00;57128.34;15284065;19;20082;-59
2021/12/22 08:18:57;;;;;;;35.17;14.15;;;;;;;-147.53;100.00;57128.34;15286813;19;20509;-59
2021/12/22 08:23:59;;;;;;;49.85;16.67;;;;;;;-147.53;100.00;57128.34;15288859;19;20109;-57
2021/12/22 08:29:01;;;;;;;50.95;15.82;;;;;;;-147.53;100.00;57128.34;15300886;19;20094;-56
2021/12/22 08:34:04;;;;;;;34.47;14.68;;;;;;;-147.53;100.00;57128.34;15297395;19;20113;-58
2021/12/22 08:39:07;;;;;;;33.45;12.68;;;;;;;-147.53;100.00;57128.34;15300907;19;20085;-58
2021/12/22 08:44:11;;;;;;;41.90;14.32;;;;;;;-147.53;100.00;57128.34;15301366;19;20014;-58
2021/12/22 08:49:12;;;;;;;39.42;13.90;;;;;;;-147.53;100.00;57128.34;15301587;19;20014;-59
2021/12/22 08:54:15;;;;;;;42.65;12.35;;;;;;;-147.53;100.00;57128.34;15298062;19;20082;-57
2021/12/22 08:59:17;;;;;;;40.65;12.60;;;;;;;-147.53;100.00;57128.34;15299926;19;20014;-57
2021/12/22 09:04:26;;;;;;;37.28;11.75;;;;;;;-147.53;100.00;57128.34;15299690;19;20423;-54
2021/12/22 09:09:38;;;;;;;30.08;12.25;;;;;;;-147.53;100.00;57128.34;15274595;19;20011;-58
2021/12/22 09:14:40;;;;;;;36.22;13.98;;;;;;;-147.53;100.00;57128.34;15296185;19;20081;-58
2021/12/22 09:19:41;;;;;;;27.15;10.93;;;;;;;-147.53;100.00;57128.34;15299006;19;20475;-58
2021/12/22 09:24:43;;;;;;;28.65;12.10;;;;;;;-147.53;100.00;57128.34;15298507;19;20114;-57
2021/12/22 09:29:45;;;;;;;27.27;11.80;;;;;;;-147.53;100.00;57128.34;15297256;19;20014;-58
2021/12/22 09:34:49;;;;;;;27.00;11.65;;;;;;;-147.53;100.00;57128.34;15292435;19;20018;-57
2021/12/22 09:39:51;;;;;;;31.92;13.23;;;;;;;-147.53;100.00;57128.34;15295956;19;20102;-58
2021/12/22 09:44:52;;;;;;;30.50;13.57;;;;;;;-147.53;100.00;57128.34;15297799;19;20369;-57
2021/12/22 09:50:09;;;;;;;27.73;12.23;;;;;;;-147.53;100.00;57128.34;15296295;19;20015;-58
2021/12/22 09:55:11;;;;;;;42.03;15.00;;;;;;;-147.53;100.00;57128.34;15291487;19;20031;-59
2021/12/22 10:00:16;;;;;;;31.20;11.60;;;;;;;-147.53;100.00;57128.34;15293667;19;20427;-56
2021/12/22 10:05:41;;;;;;;29.00;12.48;;;;;;;-147.53;100.00;57128.34;15273967;19;20015;-54
2021/12/22 10:11:00;;;;;;;26.95;12.20;;;;;;;-147.53;100.00;57128.34;15291035;19;20463;-58
2021/12/22 10:16:13;;;;;;;34.75;13.40;;;;;;;-147.53;100.00;57128.34;15291824;19;20018;-58
2021/12/22 10:21:18;;;;;;;28.63;13.07;;;;;;;-147.53;100.00;57128.34;15292435;19;20013;-58
2021/12/22 10:26:23;;;;;;;38.38;14.55;;;;;;;-147.53;100.00;57128.34;15294442;19;20074;-58
2021/12/22 10:31:47;;;;;;;31.23;13.18;;;;;;;-147.53;100.00;57128.34;15291753;19;20039;-57
2021/12/22 10:36:53;;;;;;;30.42;12.85;;;;;;;-147.53;100.00;57128.34;15293093;19;20024;-58
2021/12/22 10:42:05;;;;;;;32.30;12.95;;;;;;;-147.53;100.00;57128.34;15291619;19;20042;-60
2021/12/22 10:47:35;;;;;;;30.73;11.18;;;;;;;-147.53;100.00;57128.34;15283640;19;20034;-60
2021/12/22 10:52:37;;;;;;;28.63;11.33;;;;;;;-147.53;100.00;57128.34;15285934;19;20017;-58
2021/12/22 10:57:42;;;;;;;29.20;13.35;;;;;;;-147.53;100.00;57128.34;15286809;19;20475;-58
2021/12/22 11:03:14;;;;;;;31.70;11.43;;;;;;;-147.53;100.00;57128.34;15263050;19;20618;-58
2021/12/22 11:08:37;;;;;;;26.45;11.15;;;;;;;-147.53;100.00;57128.34;15251499;19;20036;-58
2021/12/22 11:14:13;;;;;;;29.75;11.25;;;;;;;-147.53;100.00;57128.34;15253535;19;20537;-58
2021/12/22 11:20:03;;;;;;;28.00;12.30;;;;;;;-147.53;100.00;57128.34;15253518;19;20034;-58
2021/12/22 11:25:21;;;;;;;32.25;13.48;;;;;;;-147.53;100.00;57128.34;15254431;19;20393;-59
2021/12/22 11:30:44;;;;;;;24.40;11.48;;;;;;;-147.53;100.00;57128.34;15267323;19;20019;-59
2021/12/22 11:36:28;;;;;;;31.35;11.38;;;;;;;-147.53;100.00;57128.34;15248669;19;20014;-59
2021/12/22 11:41:57;;;;;;;31.88;11.80;;;;;;;-147.53;100.00;57128.34;15249546;19;20598;-59
2021/12/22 11:47:26;;;;;;;24.77;11.38;;;;;;;-147.53;100.00;57128.34;15252631;19;20045;-58
2021/12/22 11:53:02;;;;;;;22.45;11.48;;;;;;;-147.53;100.00;57128.34;15250733;19;20011;-60
2021/12/22 11:58:22;;;;;;;27.77;12.52;;;;;;;-147.53;100.00;57128.34;15273982;19;20343;-61
2021/12/22 12:03:43;;;;;;;30.08;13.20;;;;;;;-147.53;100.00;57128.34;15266411;19;20014;-57
2021/12/22 12:09:12;;;;;;;29.42;10.95;;;;;;;-147.53;100.00;57128.34;15265714;19;20010;-58
2021/12/22 12:15:04;;;;;;;21.83;10.40;;;;;;;-147.53;100.00;57128.34;15266320;19;20549;-57
2021/12/22 12:26:09;;;;;;;23.48;10.32;;;;;;;-147.53;100.00;57128.34;15272642;19;20564;-58
2021/12/22 12:31:41;;;;;;;23.77;11.07;;;;;;;-147.53;100.00;57128.34;15267725;19;20035;-57
2021/12/22 12:36:57;;;;;;;22.50;10.75;;;;;;;-147.53;100.00;57128.34;15267017;19;20010;-58
2021/12/22 12:42:13;;;;;;;24.17;11.05;;;;;;;-147.53;100.00;57128.34;15269113;19;20018;-57
2021/12/22 12:47:31;;;;;;;22.25;9.55;;;;;;;-147.53;100.00;57128.34;15268721;19;20010;-58
2021/12/22 12:52:51;;;;;;;21.98;10.80;;;;;;;-147.53;100.00;57128.34;15257421;19;20021;-57
2021/12/22 12:58:34;;;;;;;18.77;9.75;;;;;;;-147.53;100.00;57128.34;15264032;19;20006;-57
2021/12/22 13:03:59;;;;;;;21.65;10.68;;;;;;;-147.53;100.00;57128.34;15259287;19;20019;-56
2021/12/22 13:09:31;;;;;;;22.45;10.35;;;;;;;-147.53;100.00;57128.34;15261537;19;20656;-58
2021/12/22 13:20:56;;;;;;;21.02;10.65;;;;;;;-147.53;100.00;57128.34;15155651;19;2004517;-57
2021/12/22 13:26:23;;;;;;;18.98;8.90;;;;;;;-147.53;100.00;57128.34;15258199;19;20530;-56
2021/12/22 13:31:48;;;;;;;21.02;10.68;;;;;;;-147.53;100.00;57128.34;15257809;19;20106;-57
2021/12/22 13:37:12;;;;;;;27.13;11.85;;;;;;;-147.53;100.00;57128.34;15259391;19;20125;-57
2021/12/22 13:42:42;;;;;;;26.02;10.38;;;;;;;-147.53;100.00;57128.34;15260544;19;20045;-56
2021/12/22 13:47:54;;;;;;;22.35;11.20;;;;;;;-147.53;100.00;57128.34;15259600;19;20021;-57
2021/12/22 13:53:25;;;;;;;27.35;10.32;;;;;;;-147.53;100.00;57128.34;15257921;19;20359;-57
2021/12/22 13:58:50;;;;;;;24.35;9.98;;;;;;;-147.53;100.00;57128.34;15259884;19;20010;-57
2021/12/22 14:04:24;;;;;;;22.85;9.85;;;;;;;-147.53;100.00;57128.34;15257500;19;20363;-57
2021/12/22 14:09:50;;;;;;;;;;;;;;;-147.53;100.00;57128.34;15257025;19;20022;-57
2021/12/22 14:15:40;;;;;;;25.98;11.18;;;;;;;-147.53;100.00;57128.34;15231126;19;19990;-57
2021/12/22 14:21:05;;;;;;;33.28;12.40;;;;;;;-147.53;100.00;57128.34;15254136;19;20433;-57
2021/12/22 14:26:36;;;;;;;26.02;11.07;;;;;;;-147.53;100.00;57128.34;15254488;19;20121;-57
2021/12/22 14:32:06;;;;;;;24.63;11.48;;;;;;;-147.53;100.00;57128.34;15255139;19;20019;-57
2021/12/22 14:37:47;;;;;;;26.85;11.00;;;;;;;-147.53;100.00;57128.34;15257699;19;20071;-57
2021/12/22 14:43:19;;;;;;;22.08;10.02;;;;;;;-147.53;100.00;57128.34;15255342;19;20014;-57
2021/12/22 14:48:54;;;;;;;24.08;10.80;;;;;;;-147.53;100.00;57128.34;15256615;19;20014;-57
2021/12/22 14:54:30;;;;;;;26.17;10.93;;;;;;;-147.53;100.00;57128.34;15250190;19;20019;-57
2021/12/22 14:59:58;;;;;;;25.05;10.05;;;;;;;-147.53;100.00;57128.34;15253644;19;20021;-57
2021/12/22 15:05:25;;;;;;;;;;;;;;;-147.53;100.00;57128.34;15157239;19;2004260;-57
2021/12/22 15:10:50;;;;;;;71.03;19.45;;;;;;;-147.53;100.00;57128.34;15252804;19;20267;-56
2021/12/22 15:16:12;;;;;;;31.40;14.55;;;;;;;-147.53;100.00;57128.34;15255934;19;20562;-57
2021/12/22 15:21:30;;;;;;;42.53;16.67;;;;;;;-147.53;100.00;57128.34;15250011;19;20385;-57
2021/12/22 15:26:51;;;;;;;35.60;14.90;;;;;;;-147.53;100.00;57128.34;15253844;19;20018;-55
2021/12/22 15:32:21;;;;;;;25.33;11.32;;;;;;;-147.53;100.00;57128.34;15257390;19;20062;-56
2021/12/22 15:37:44;;;;;;;30.08;12.68;;;;;;;-147.53;100.00;57128.34;15268247;19;20025;-56
2021/12/22 15:42:52;;;;;;;36.65;13.98;;;;;;;-147.53;100.00;57128.34;15265962;19;20154;-59
2021/12/22 15:47:56;;;;;;;30.10;13.38;;;;;;;-147.53;100.00;57128.34;15287866;19;20114;-59
2021/12/22 15:52:58;;;;;;;38.28;15.45;;;;;;;-147.53;100.00;57128.34;15281290;19;20025;-59
2021/12/22 15:58:01;;;;;;;30.00;13.10;;;;;;;-147.53;100.00;57128.34;15285022;19;20025;-59
2021/12/22 16:03:14;;;;;;;31.33;12.00;;;;;;;-147.53;100.00;57128.34;15288602;19;20011;-58
2021/12/22 16:08:42;;;;;;;29.15;13.98;;;;;;;-147.53;100.00;57128.34;15260144;19;20027;-58
2021/12/22 16:14:07;;;;;;;29.77;11.60;;;;;;;-147.53;100.00;57128.34;15258459;19;20011;-57
2021/12/22 16:19:37;;;;;;;22.45;9.23;;;;;;;-147.53;100.00;57128.34;15264189;19;20045;-57
2021/12/22 16:25:11;;;;;;;19.77;9.65;;;;;;;-147.53;100.00;57128.34;15260932;19;20022;-56
2021/12/22 16:30:40;;;;;;;25.85;11.75;;;;;;;-147.53;100.00;57128.34;15159146;19;2004708;-56
2021/12/22 16:36:12;;;;;;;21.98;9.73;;;;;;;-147.53;100.00;57128.34;15264940;19;20042;-56
2021/12/22 16:41:41;;;;;;;27.27;11.60;;;;;;;-147.53;100.00;57128.34;15263611;19;20011;-58
2021/12/22 16:47:10;;;;;;;32.40;15.20;;;;;;;-147.53;100.00;57128.34;15275022;19;20015;-57
2021/12/22 16:52:29;;;;;;;33.70;15.20;;;;;;;-147.53;100.00;57128.34;15277806;19;20051;-57
2021/12/22 16:57:42;;;;;;;30.00;12.98;;;;;;;-147.53;100.00;57128.34;15285895;19;20078;-57
2021/12/22 17:03:05;;;;;;;34.50;12.93;;;;;;;-147.53;100.00;57128.34;15271408;19;20292;-58
2021/12/22 17:08:20;;;;;;;24.67;10.43;;;;;;;-147.53;100.00;57128.34;15271498;19;20078;-58
2021/12/22 17:13:46;;;;;;;25.00;12.95;;;;;;;-147.53;100.00;57128.34;15267915;19;20022;-58
2021/12/22 17:19:03;;;;;;;27.77;11.68;;;;;;;-147.53;100.00;57128.34;15286557;19;20773;-57
2021/12/22 17:24:17;;;;;;;49.70;15.18;;;;;;;-147.53;100.00;57128.34;15284149;19;20377;-57
2021/12/22 17:29:33;;;;;;;28.67;13.23;;;;;;;-147.53;100.00;57128.34;15267323;19;20089;-59
2021/12/22 17:34:35;;;;;;;29.90;12.02;;;;;;;-147.53;100.00;57128.34;15289231;19;20382;-59
2021/12/22 17:39:37;;;;;;;23.80;10.20;;;;;;;-147.53;100.00;57128.34;15292504;19;20022;-59
2021/12/22 17:44:40;;;;;;;19.98;8.80;;;;;;;-147.53;100.00;57128.34;15292205;19;20015;-59
2021/12/22 17:49:42;;;;;;;23.30;9.52;;;;;;;-147.53;100.00;57128.34;15291944;19;20022;-59
2021/12/22 17:54:48;;;;;;;24.33;9.35;;;;;;;-147.53;100.00;57128.34;15295097;19;20022;-58
2021/12/22 17:59:55;;;;;;;23.20;8.60;;;;;;;-147.53;100.00;57128.34;15280344;19;20030;-60
2021/12/22 18:05:16;;;;;;;27.67;11.33;;;;;;;-147.53;100.00;57128.34;15279479;19;20015;-58
2021/12/22 18:10:40;;;;;;;21.83;8.77;;;;;;;-147.53;100.00;57128.34;15274260;19;20007;-57
2021/12/22 18:16:00;;;;;;;24.98;8.68;;;;;;;-147.53;100.00;57128.34;15270572;19;20002;-58
2021/12/22 18:21:34;;;;;;;23.38;9.68;;;;;;;-147.53;100.00;57128.34;15265348;19;20010;-55
2021/12/22 18:27:02;;;;;;;20.95;9.38;;;;;;;-147.53;100.00;57128.34;15261086;19;20076;-57
2021/12/22 18:32:32;;;;;;;22.30;9.13;;;;;;;-147.53;100.00;57128.34;15252897;19;20029;-56
2021/12/22 18:43:30;;;;;;;24.10;10.07;;;;;;;-147.53;100.00;57128.34;15255822;19;20026;-57
2021/12/22 18:49:05;;;;;;;23.48;9.50;;;;;;;-147.53;100.00;57128.34;15258141;19;20523;-56
2021/12/22 18:54:24;;;;;;;24.60;10.02;;;;;;;-147.53;100.00;57128.34;15254477;19;20014;-57
2021/12/22 18:59:48;;;;;;;28.55;11.20;;;;;;;-147.53;100.00;57128.34;15258969;19;20022;-56
2021/12/22 19:05:16;;;;;;;27.83;10.48;;;;;;;-147.53;100.00;57128.34;15246812;19;20637;-56
2021/12/22 19:10:29;;;;;;;23.70;9.90;;;;;;;-147.53;100.00;57128.34;15273011;19;20127;-57
2021/12/22 19:15:35;;;;;;;23.80;9.25;;;;;;;-147.53;100.00;57128.34;15272891;19;20019;-58
2021/12/22 19:20:42;;;;;;;;;;;;;;;-147.53;100.00;57128.34;15273438;19;20010;-57
2021/12/22 19:25:47;;;;;;;20.67;8.45;;;;;;;-147.53;100.00;57128.34;15280860;19;19931;-59
2021/12/22 19:30:54;;;;;;;30.27;10.90;;;;;;;-147.53;100.00;57128.34;15263313;19;20086;-60
2021/12/22 19:36:07;;;;;;;32.63;13.85;;;;;;;-147.53;100.00;57128.34;15287677;19;20017;-56
2021/12/22 19:41:14;;;;;;;25.23;11.48;;;;;;;-147.53;100.00;57128.34;15277700;19;20014;-57
2021/12/22 19:46:18;;;;;;;24.77;11.05;;;;;;;-147.53;100.00;57128.34;15274495;19;20098;-58
2021/12/22 19:51:20;;;;;;;30.38;12.25;;;;;;;-147.53;100.00;57128.34;15274136;19;20036;-58
2021/12/22 19:56:22;;;;;;;27.80;11.75;;;;;;;-147.53;100.00;57128.34;15273174;19;20014;-58
2021/12/22 20:01:37;;;;;;;28.30;11.95;;;;;;;-147.53;100.00;57128.34;15274563;19;20082;-57
2021/12/22 20:06:55;;;;;;;29.70;12.65;;;;;;;-147.53;100.00;57128.34;15274259;19;20014;-58
2021/12/22 20:12:04;;;;;;;29.23;13.18;;;;;;;-147.53;100.00;57128.34;15273766;19;20014;-58
2021/12/22 20:17:06;;;;;;;29.00;12.23;;;;;;;-147.53;100.00;57128.34;15271423;19;20011;-60
2021/12/22 20:22:07;;;;;;;21.10;9.65;;;;;;;-147.53;100.00;57128.34;15288704;19;20030;-56
2021/12/22 20:27:10;;;;;;;26.85;10.73;;;;;;;-147.53;100.00;57128.34;15298504;19;20015;-56
2021/12/22 20:32:22;;;;;;;29.10;12.27;;;;;;;-147.53;100.00;57128.34;15290121;19;20074;-54
2021/12/22 20:37:38;;;;;;;32.65;11.95;;;;;;;-147.53;100.00;57128.34;15265810;19;20172;-55
2021/12/22 20:42:47;;;;;;;30.70;12.65;;;;;;;-147.53;100.00;57128.34;15282784;19;20021;-57
2021/12/22 20:47:57;;;;;;;28.42;9.35;;;;;;;-147.53;100.00;57128.34;15294423;19;20030;-55
2021/12/22 20:53:09;;;;;;;30.67;12.52;;;;;;;-147.53;100.00;57128.34;15272527;19;20036;-55
2021/12/22 20:58:34;;;;;;;33.20;13.65;;;;;;;-147.53;100.00;57128.34;15277775;19;20352;-55
2021/12/22 21:03:49;;;;;;;44.50;13.70;;;;;;;-147.53;100.00;57128.34;15296608;19;20033;-55
2021/12/22 21:08:51;;;;;;;30.10;12.23;;;;;;;-147.53;100.00;57128.34;15301323;19;20035;-57
2021/12/22 21:13:52;;;;;;;28.75;11.40;;;;;;;-147.53;100.00;57128.34;15293450;19;20019;-59
2021/12/22 21:18:54;;;;;;;35.15;12.05;;;;;;;-147.53;100.00;57128.34;15297861;19;20016;-58
2021/12/22 21:23:55;;;;;;;50.00;14.25;;;;;;;-147.53;100.00;57128.34;15296584;19;20025;-58
2021/12/22 21:28:58;;;;;;;35.25;13.60;;;;;;;-147.53;100.00;57128.34;15296791;19;20074;-58
2021/12/22 21:33:59;;;;;;;25.77;10.88;;;;;;;-147.53;100.00;57128.34;15296757;19;20027;-58
2021/12/22 21:39:01;;;;;;;49.97;13.82;;;;;;;-147.53;100.00;57128.34;15295654;19;20074;-58
2021/12/22 21:44:04;;;;;;;53.95;17.17;;;;;;;-147.53;100.00;57128.34;15295108;19;20027;-57
2021/12/22 21:49:06;;;;;;;44.83;15.35;;;;;;;-147.53;100.00;57128.34;15298020;19;20014;-60
2021/12/22 21:54:08;;;;;;;41.42;14.38;;;;;;;-147.53;100.00;57128.34;15296354;19;20031;-57
2021/12/22 21:59:10;;;;;;;31.35;12.35;;;;;;;-147.53;100.00;57128.34;15295220;19;20018;-58
2021/12/22 22:04:11;;;;;;;39.53;14.32;;;;;;;-147.53;100.00;57128.34;15300768;19;20031;-57
2021/12/22 22:09:13;;;;;;;24.58;9.50;;;;;;;-147.53;100.00;57128.34;15288932;19;20035;-58
2021/12/22 22:14:15;;;;;;;25.83;10.55;;;;;;;-147.53;100.00;57128.34;15286709;19;20014;-57
2021/12/22 22:19:17;;;;;;;25.42;10.65;;;;;;;-147.53;100.00;57128.34;15287427;19;20447;-57
2021/12/22 22:24:19;;;;;;;25.48;10.43;;;;;;;-147.53;100.00;57128.34;15287118;19;20021;-58
2021/12/22 22:29:22;;;;;;;22.85;10.65;;;;;;;-147.53;100.00;57128.34;15287326;19;20100;-58
2021/12/22 22:34:24;;;;;;;34.22;15.13;;;;;;;-147.53;100.00;57128.34;15284685;19;20024;-57
2021/12/22 22:39:25;;;;;;;26.02;10.95;;;;;;;-147.53;100.00;57128.34;15285342;19;20416;-58
2021/12/22 22:44:27;;;;;;;27.55;11.95;;;;;;;-147.53;100.00;57128.34;15281654;19;20594;-58
2021/12/22 22:49:29;;;;;;;27.35;11.57;;;;;;;-147.53;100.00;57128.34;15291996;19;20081;-59
2021/12/22 22:54:30;;;;;;;27.35;11.70;;;;;;;-147.53;100.00;57128.34;15284919;19;20011;-58
2021/12/22 22:59:32;;;;;;;26.55;10.70;;;;;;;-147.53;100.00;57128.34;15286071;19;20090;-58
2021/12/22 23:04:34;;;;;;;21.70;9.85;;;;;;;-147.53;100.00;57128.34;15295799;19;20102;-57
2021/12/22 23:09:37;;;;;;;22.48;9.52;;;;;;;-147.53;100.00;57128.34;15281384;19;20014;-58
2021/12/22 23:14:39;;;;;;;28.85;10.23;;;;;;;-147.53;100.00;57128.34;15282010;19;20408;-59
2021/12/22 23:19:44;;;;;;;21.70;10.18;;;;;;;-147.53;100.00;57128.34;15282523;19;20078;-57